Time;durP1;ratioP1;P1;durP2;ratioP2;P2;SDS_P1;SDS_P2;PMS_P1;PMS_P2;Temp;Humidity;BMP_temperature;BMP_pressure;BME280_temperature;BME280_humidity;BME280_pressure;Samples;Min_cycle;Max_cycle;Signal;HPM_P1;HPM_P2
2023/10/11 00:00:52;;;;;;;21.95;20.35;;;17.00;99.90;;;;;;4921395;29;20633;-73
2023/10/11 00:05:53;;;;;;;22.33;20.20;;;17.40;99.90;;;;;;4938979;28;20050;-74
2023/10/11 00:08:27;;;;;;;24.73;22.40;;;17.60;99.90;;;;;;4934250;28;20043;-72
2023/10/11 00:10:59;;;;;;;24.58;22.27;;;17.60;99.90;;;;;;4936470;28;20514;-72
2023/10/11 00:13:33;;;;;;;23.83;21.70;;;17.70;99.90;;;;;;4935967;28;20506;-73
2023/10/11 00:16:07;;;;;;;24.58;22.58;;;17.80;99.90;;;;;;4920468;28;20135;-73
2023/10/11 00:18:39;;;;;;;24.63;22.30;;;17.90;99.90;;;;;;4922423;29;20043;-74
2023/10/11 00:21:15;;;;;;;23.70;21.75;;;17.80;99.90;;;;;;4931303;28;20039;-73
2023/10/11 00:23:50;;;;;;;24.27;22.02;;;17.80;99.90;;;;;;4939930;28;20047;-74
2023/10/11 00:26:18;;;;;;;24.58;22.52;;;17.90;99.90;;;;;;4935674;28;20066;-72
2023/10/11 00:28:56;;;;;;;25.40;22.90;;;17.90;99.90;;;;;;4935406;28;20151;-73
2023/10/11 00:31:23;;;;;;;24.50;22.08;;;18.00;99.90;;;;;;4931161;28;20047;-72
2023/10/11 00:33:51;;;;;;;25.35;22.67;;;18.00;99.90;;;;;;4922789;29;20395;-72
2023/10/11 00:36:24;;;;;;;24.70;22.40;;;18.10;99.90;;;;;;4918353;28;20047;-73
2023/10/11 00:38:51;;;;;;;24.65;22.65;;;18.10;99.90;;;;;;4923625;29;20109;-73
2023/10/11 00:41:18;;;;;;;25.05;22.90;;;18.10;99.90;;;;;;4914749;28;20057;-73
2023/10/11 00:43:52;;;;;;;25.23;22.90;;;18.10;99.90;;;;;;4937563;28;20727;-73
2023/10/11 00:46:23;;;;;;;24.45;22.23;;;18.10;99.90;;;;;;4919213;28;20051;-73
2023/10/11 00:48:53;;;;;;;26.45;23.65;;;18.00;99.90;;;;;;4923493;29;20066;-72
2023/10/11 00:51:31;;;;;;;25.90;23.25;;;18.10;99.90;;;;;;4920766;28;20833;-73
2023/10/11 00:54:04;;;;;;;24.85;22.65;;;18.10;99.90;;;;;;4930949;28;20062;-73
2023/10/11 00:56:31;;;;;;;24.80;22.40;;;18.10;99.90;;;;;;4916300;28;20050;-73
2023/10/11 00:59:08;;;;;;;24.40;22.42;;;18.10;99.90;;;;;;4936892;28;20130;-74
2023/10/11 01:01:40;;;;;;;27.05;24.27;;;18.10;99.90;;;;;;4917019;29;20062;-73
2023/10/11 01:04:08;;;;;;;24.83;22.83;;;18.20;99.90;;;;;;4919623;28;20150;-73
2023/10/11 01:06:36;;;;;;;25.45;23.23;;;18.10;99.90;;;;;;4919053;29;20109;-73
2023/10/11 01:09:15;;;;;;;25.33;23.20;;;18.10;99.90;;;;;;4934997;28;20747;-73
2023/10/11 01:11:45;;;;;;;24.83;22.67;;;18.10;99.90;;;;;;4909660;29;20054;-73
2023/10/11 01:14:13;;;;;;;25.88;23.38;;;18.00;99.90;;;;;;4927902;28;20468;-74
2023/10/11 01:16:41;;;;;;;25.38;23.10;;;18.10;99.90;;;;;;4917773;29;20656;-73
2023/10/11 01:19:12;;;;;;;25.15;22.73;;;18.10;99.90;;;;;;4919408;28;20577;-72
2023/10/11 01:21:39;;;;;;;26.27;23.98;;;18.00;99.90;;;;;;4919625;29;20466;-72
2023/10/11 01:24:09;;;;;;;25.92;23.42;;;18.00;99.90;;;;;;4936371;28;20390;-75
2023/10/11 01:26:37;;;;;;;26.58;24.10;;;18.00;99.90;;;;;;4935296;28;20035;-74
2023/10/11 01:29:05;;;;;;;25.08;22.85;;;18.00;99.90;;;;;;4936562;28;20154;-73
2023/10/11 01:31:33;;;;;;;26.17;23.83;;;18.00;99.90;;;;;;4914021;28;20040;-72
2023/10/11 01:34:01;;;;;;;25.60;23.38;;;18.00;99.90;;;;;;4932965;28;20050;-73
2023/10/11 01:36:28;;;;;;;26.08;23.77;;;17.90;99.90;;;;;;4916190;28;20469;-72
2023/10/11 01:39:00;;;;;;;26.40;24.00;;;17.90;99.90;;;;;;4920206;28;20066;-71
2023/10/11 01:41:27;;;;;;;24.70;22.60;;;17.80;99.90;;;;;;4928890;28;20648;-72
2023/10/11 01:43:56;;;;;;;26.02;23.42;;;17.80;99.90;;;;;;4934055;28;20138;-73
2023/10/11 01:46:35;;;;;;;25.75;23.35;;;17.80;99.90;;;;;;4915302;28;20075;-72
2023/10/11 01:49:05;;;;;;;25.27;23.17;;;17.70;99.90;;;;;;4936061;28;20039;-73
2023/10/11 01:51:38;;;;;;;26.13;23.58;;;17.70;99.90;;;;;;4918988;28;20039;-73
2023/10/11 01:54:06;;;;;;;26.42;23.65;;;17.70;99.90;;;;;;4934183;28;20067;-74
2023/10/11 01:56:34;;;;;;;25.35;23.08;;;17.60;99.90;;;;;;4917477;28;20079;-74
2023/10/11 01:59:01;;;;;;;25.95;23.38;;;17.60;99.90;;;;;;4917848;28;20051;-72
2023/10/11 02:01:38;;;;;;;26.13;23.65;;;17.60;99.90;;;;;;4914362;28;20526;-75
2023/10/11 02:04:18;;;;;;;26.17;23.92;;;17.60;99.90;;;;;;4935976;28;20525;-72
2023/10/11 02:06:47;;;;;;;25.95;23.40;;;17.60;99.90;;;;;;4911107;29;20125;-73
2023/10/11 02:09:20;;;;;;;25.42;23.40;;;17.60;99.90;;;;;;4916444;28;20249;-73
2023/10/11 02:11:52;;;;;;;27.08;24.38;;;17.60;99.90;;;;;;4923213;28;20134;-73
2023/10/11 02:14:19;;;;;;;26.00;23.30;;;17.60;99.90;;;;;;4913823;28;20117;-73
2023/10/11 02:16:47;;;;;;;26.98;24.20;;;17.60;99.90;;;;;;4920665;29;20043;-72
2023/10/11 02:19:15;;;;;;;25.25;23.13;;;17.60;99.90;;;;;;4914854;28;20679;-72
2023/10/11 02:21:44;;;;;;;26.48;24.17;;;17.60;99.90;;;;;;4903266;29;20810;-74
2023/10/11 02:24:15;;;;;;;26.63;24.05;;;17.60;99.90;;;;;;4920097;28;20050;-73
2023/10/11 02:26:49;;;;;;;25.33;22.98;;;17.50;99.90;;;;;;4916337;29;20043;-73
2023/10/11 02:29:25;;;;;;;26.95;24.23;;;17.50;99.90;;;;;;4917589;28;21163;-74
2023/10/11 02:31:53;;;;;;;26.27;23.83;;;17.60;99.90;;;;;;4932652;28;20390;-74
2023/10/11 02:34:22;;;;;;;26.05;23.58;;;17.70;99.90;;;;;;4933112;28;20058;-74
2023/10/11 02:37:04;;;;;;;26.45;24.02;;;17.60;99.90;;;;;;4935993;28;20774;-73
2023/10/11 02:39:42;;;;;;;26.05;23.65;;;17.60;99.90;;;;;;4932005;28;20643;-74
2023/10/11 02:42:09;;;;;;;26.45;23.85;;;17.60;99.90;;;;;;4918455;28;20151;-74
2023/10/11 02:44:39;;;;;;;26.55;23.90;;;17.60;99.90;;;;;;4934066;28;20050;-74
2023/10/11 02:47:08;;;;;;;26.23;23.92;;;17.50;99.90;;;;;;4935509;28;20134;-74
2023/10/11 02:49:35;;;;;;;25.75;23.27;;;17.50;99.90;;;;;;4920048;28;20055;-72
2023/10/11 02:52:08;;;;;;;26.30;23.83;;;17.50;99.90;;;;;;4918068;28;20039;-74
2023/10/11 02:54:38;;;;;;;25.95;23.48;;;17.50;99.90;;;;;;4919153;28;20481;-71
2023/10/11 02:57:06;;;;;;;25.75;23.20;;;17.50;99.90;;;;;;4938023;28;20052;-74
2023/10/11 02:59:36;;;;;;;26.27;23.77;;;17.50;99.90;;;;;;4936588;28;21439;-73
2023/10/11 03:02:07;;;;;;;26.27;23.85;;;17.50;99.90;;;;;;4921467;28;20058;-73
2023/10/11 03:04:39;;;;;;;25.17;23.08;;;17.50;99.90;;;;;;4922503;28;20051;-73
2023/10/11 03:07:14;;;;;;;26.15;23.75;;;17.50;99.90;;;;;;4935309;28;20122;-73
2023/10/11 03:09:41;;;;;;;25.05;22.63;;;17.50;99.90;;;;;;4937786;28;20049;-73
2023/10/11 03:14:57;;;;;;;;;;;17.50;99.90;;;;;;4937614;28;20622;-72
2023/10/11 03:17:24;;;;;;;25.20;22.90;;;17.50;99.90;;;;;;4905404;28;20449;-72
2023/10/11 03:19:52;;;;;;;28.67;24.27;;;17.50;99.90;;;;;;4932691;29;20059;-72
2023/10/11 03:22:20;;;;;;;26.05;23.55;;;17.40;99.90;;;;;;4946005;28;20635;-71
2023/10/11 03:24:53;;;;;;;25.73;23.33;;;17.40;99.90;;;;;;4919689;29;20043;-71
2023/10/11 03:27:23;;;;;;;25.35;23.00;;;17.40;99.90;;;;;;4945055;28;20058;-70
2023/10/11 03:29:52;;;;;;;26.48;23.77;;;17.40;99.90;;;;;;4950336;28;20252;-72
2023/10/11 03:32:25;;;;;;;25.52;23.08;;;17.40;99.90;;;;;;4930091;28;20051;-71
2023/10/11 03:34:52;;;;;;;26.17;23.73;;;17.40;99.90;;;;;;4935273;29;20051;-71
2023/10/11 03:37:19;;;;;;;26.65;24.17;;;17.30;99.90;;;;;;4928180;28;20110;-71
2023/10/11 03:39:55;;;;;;;26.10;23.50;;;17.20;99.90;;;;;;4948393;28;20054;-72
2023/10/11 03:45:11;;;;;;;24.88;22.40;;;17.30;99.90;;;;;;4947059;28;20073;-72
2023/10/11 03:47:38;;;;;;;25.77;23.27;;;17.30;99.90;;;;;;4944806;28;20106;-71
2023/10/11 03:50:06;;;;;;;25.60;23.33;;;17.30;99.90;;;;;;4929380;28;20043;-71
2023/10/11 03:52:33;;;;;;;25.52;23.10;;;17.30;99.90;;;;;;4941904;28;20573;-72
2023/10/11 03:55:09;;;;;;;25.42;23.20;;;17.30;99.90;;;;;;4951325;28;20694;-71
2023/10/11 03:57:44;;;;;;;26.48;23.65;;;17.30;99.90;;;;;;4943955;28;20079;-71
2023/10/11 04:02:58;;;;;;;25.83;23.38;;;17.30;99.90;;;;;;4935207;28;20049;-72
2023/10/11 04:05:29;;;;;;;;;;;17.20;99.90;;;;;;4931235;28;20051;-72
2023/10/11 04:07:56;;;;;;;25.67;23.02;;;17.30;99.90;;;;;;4934331;28;19922;-73
2023/10/11 04:10:38;;;;;;;25.63;23.30;;;17.30;99.90;;;;;;4900822;28;20641;-72
2023/10/11 04:13:14;;;;;;;25.30;22.90;;;17.20;99.90;;;;;;4932987;28;20039;-72
2023/10/11 04:15:41;;;;;;;24.95;22.42;;;17.20;99.90;;;;;;4930120;28;20052;-73
2023/10/11 04:18:20;;;;;;;23.55;21.45;;;17.10;99.90;;;;;;4934562;28;20050;-72
2023/10/11 04:20:59;;;;;;;25.13;22.52;;;17.10;99.90;;;;;;4900009;28;20055;-72
2023/10/11 04:23:27;;;;;;;25.15;22.48;;;17.10;99.90;;;;;;4928469;28;20545;-72
2023/10/11 04:25:55;;;;;;;24.75;22.40;;;17.10;99.90;;;;;;4934472;28;20043;-73
2023/10/11 04:28:23;;;;;;;24.02;21.85;;;17.10;99.90;;;;;;4931817;28;20055;-72
2023/10/11 04:31:17;;;;;;;25.33;22.15;;;17.00;99.90;;;;;;4932469;28;20074;-72
2023/10/11 04:33:37;;;;;;;24.17;21.98;;;17.00;99.90;;;;;;4923757;28;20133;-72
2023/10/11 04:36:04;;;;;;;23.63;21.80;;;17.00;99.90;;;;;;4932619;28;20047;-72
2023/10/11 04:38:33;;;;;;;24.20;21.90;;;16.90;99.90;;;;;;4929923;28;20634;-72
2023/10/11 04:41:02;;;;;;;23.83;21.63;;;16.90;99.90;;;;;;4929175;28;20040;-73
2023/10/11 04:43:39;;;;;;;24.02;21.73;;;16.90;99.90;;;;;;4912358;28;20048;-73
2023/10/11 04:46:15;;;;;;;23.95;21.83;;;16.80;99.90;;;;;;4928769;28;20513;-73
2023/10/11 04:48:41;;;;;;;23.67;21.65;;;16.70;99.90;;;;;;4910374;28;20054;-72
2023/10/11 04:56:52;;;;;;;23.90;21.63;;;16.50;99.90;;;;;;4929993;28;20157;-71
2023/10/11 05:04:26;;;;;;;24.35;21.80;;;16.40;99.90;;;;;;4930901;28;20230;-72
2023/10/11 05:06:54;;;;;;;24.48;22.25;;;16.40;99.90;;;;;;4909782;29;20712;-72
2023/10/11 05:09:52;;;;;;;23.25;21.27;;;16.30;99.90;;;;;;4930946;28;20107;-71
2023/10/11 05:12:19;;;;;;;23.25;21.20;;;16.30;99.90;;;;;;4928656;28;20055;-71
2023/10/11 05:25:37;;;;;;;24.80;21.83;;;16.30;99.90;;;;;;4930878;28;20134;-72
2023/10/11 05:31:00;;;;;;;24.13;22.05;;;16.30;99.90;;;;;;4926370;28;20075;-71
2023/10/11 05:36:17;;;;;;;24.70;22.38;;;16.20;99.90;;;;;;4914273;28;20617;-73
2023/10/11 05:52:33;;;;;;;25.27;22.98;;;16.20;99.90;;;;;;4928145;28;20043;-72
2023/10/11 05:54:59;;;;;;;25.33;23.00;;;16.20;99.90;;;;;;4934437;28;20063;-71
2023/10/11 05:57:28;;;;;;;24.38;21.83;;;16.20;99.90;;;;;;4913574;28;20042;-71
2023/10/11 05:59:55;;;;;;;24.55;22.30;;;16.10;99.90;;;;;;4932034;28;20691;-72
2023/10/11 06:02:22;;;;;;;24.38;21.88;;;16.10;99.90;;;;;;4915638;28;20363;-72
2023/10/11 06:04:50;;;;;;;26.05;23.63;;;16.10;99.90;;;;;;4915577;28;20043;-72
2023/10/11 06:07:19;;;;;;;28.40;25.60;;;16.00;99.90;;;;;;4932251;28;20218;-72
2023/10/11 06:09:46;;;;;;;26.63;24.27;;;16.00;99.90;;;;;;4928415;28;20146;-72
2023/10/11 06:12:23;;;;;;;25.55;23.35;;;15.90;99.90;;;;;;4927786;28;20047;-73
2023/10/11 06:14:52;;;;;;;25.02;22.95;;;15.90;99.90;;;;;;4913988;28;20051;-71
2023/10/11 06:22:52;;;;;;;25.90;23.60;;;16.10;99.90;;;;;;4910876;28;20518;-72
2023/10/11 06:25:23;;;;;;;25.27;23.13;;;16.20;99.90;;;;;;4905535;28;20051;-71
2023/10/11 06:30:21;;;;;;;25.42;22.95;;;16.30;99.90;;;;;;4934253;28;20066;-71
2023/10/11 06:32:52;;;;;;;25.00;22.92;;;16.40;99.90;;;;;;4934475;28;20059;-72
2023/10/11 06:35:25;;;;;;;25.85;23.40;;;16.40;99.90;;;;;;4919581;28;20665;-72
2023/10/11 06:37:54;;;;;;;26.95;24.38;;;16.50;99.90;;;;;;4934656;28;20062;-72
2023/10/11 06:43:11;;;;;;;27.35;24.83;;;16.50;99.90;;;;;;4934526;28;20103;-72
2023/10/11 06:45:41;;;;;;;26.48;24.40;;;16.40;99.90;;;;;;4930214;28;20059;-71
2023/10/11 06:48:09;;;;;;;26.40;24.15;;;16.40;99.90;;;;;;4934907;28;20102;-71
2023/10/11 06:50:37;;;;;;;26.35;24.13;;;16.40;99.90;;;;;;4898074;28;20035;-71
2023/10/11 06:53:08;;;;;;;26.73;24.30;;;16.50;99.90;;;;;;4936363;28;20677;-72
2023/10/11 06:55:39;;;;;;;30.70;24.70;;;16.50;99.90;;;;;;4916876;28;20050;-72
2023/10/11 06:58:15;;;;;;;25.13;23.02;;;16.70;99.90;;;;;;4932280;28;20047;-71
2023/10/11 07:00:53;;;;;;;26.30;24.02;;;16.80;99.90;;;;;;4930948;28;20122;-71
2023/10/11 07:03:38;;;;;;;25.90;23.77;;;16.90;99.90;;;;;;4931766;28;20078;-71
2023/10/11 07:06:12;;;;;;;25.35;23.25;;;17.00;99.90;;;;;;4935101;28;20118;-71
2023/10/11 07:08:53;;;;;;;27.13;24.77;;;17.10;99.90;;;;;;4915868;28;20059;-71
2023/10/11 07:14:29;;;;;;;26.73;24.40;;;17.20;99.90;;;;;;4859882;29;20045;-71
2023/10/11 07:16:57;;;;;;;26.75;24.42;;;17.30;99.90;;;;;;4865030;29;20766;-72
2023/10/11 07:19:24;;;;;;;27.00;24.08;;;17.30;99.90;;;;;;4899811;28;20039;-71
2023/10/11 07:21:53;;;;;;;26.67;24.25;;;17.40;99.90;;;;;;4932717;28;20171;-71
2023/10/11 07:24:41;;;;;;;26.98;24.27;;;17.50;99.90;;;;;;4937232;28;20653;-72
2023/10/11 07:27:08;;;;;;;26.67;24.27;;;17.60;99.90;;;;;;4933208;28;20773;-73
2023/10/11 07:29:37;;;;;;;26.05;23.92;;;17.60;99.90;;;;;;4930471;28;20649;-71
2023/10/11 07:32:09;;;;;;;25.83;23.60;;;17.60;99.90;;;;;;4920027;28;20055;-72
2023/10/11 07:34:40;;;;;;;27.38;24.63;;;17.60;99.90;;;;;;4935212;28;20051;-71
2023/10/11 07:37:11;;;;;;;27.35;24.63;;;17.70;99.90;;;;;;4905725;28;20059;-72
2023/10/11 07:39:40;;;;;;;27.25;24.50;;;17.70;99.90;;;;;;4933242;28;20654;-73
2023/10/11 07:42:08;;;;;;;26.10;23.73;;;17.80;99.90;;;;;;4918367;28;20133;-72
2023/10/11 07:44:39;;;;;;;25.92;23.77;;;17.80;99.90;;;;;;4916998;28;20050;-71
2023/10/11 07:47:14;;;;;;;26.73;24.30;;;17.90;99.90;;;;;;4933978;28;20554;-72
2023/10/11 07:49:43;;;;;;;26.17;23.75;;;18.00;99.90;;;;;;4935112;28;20035;-72
2023/10/11 07:52:10;;;;;;;26.00;23.75;;;18.10;99.90;;;;;;4916504;28;20039;-72
2023/10/11 07:54:39;;;;;;;26.50;24.27;;;18.20;99.90;;;;;;4901744;28;20079;-71
2023/10/11 07:57:17;;;;;;;25.42;23.48;;;18.30;99.90;;;;;;4928596;28;20054;-72
2023/10/11 07:59:47;;;;;;;25.70;23.67;;;18.50;99.90;;;;;;4932906;28;20047;-72
2023/10/11 08:02:29;;;;;;;25.00;22.83;;;18.70;99.90;;;;;;4932764;28;20047;-72
2023/10/11 08:04:57;;;;;;;26.52;24.08;;;18.90;99.90;;;;;;4931290;28;20063;-72
2023/10/11 08:07:24;;;;;;;25.50;23.50;;;19.10;99.90;;;;;;4919490;28;20035;-72
2023/10/11 08:09:55;;;;;;;26.40;24.23;;;19.30;99.90;;;;;;4932869;28;20040;-72
2023/10/11 08:12:23;;;;;;;27.42;24.50;;;19.40;99.90;;;;;;4916819;28;20043;-73
2023/10/11 08:14:56;;;;;;;26.90;24.45;;;19.50;99.90;;;;;;4931570;28;20035;-72
2023/10/11 08:17:29;;;;;;;25.73;23.38;;;19.60;99.90;;;;;;4934422;28;20055;-72
2023/10/11 08:19:57;;;;;;;27.20;24.88;;;19.60;99.90;;;;;;4928989;28;20039;-72
2023/10/11 08:22:23;;;;;;;26.88;24.38;;;19.70;99.90;;;;;;4933344;28;20079;-72
2023/10/11 08:24:56;;;;;;;26.92;24.75;;;19.70;99.90;;;;;;4933359;28;20046;-72
2023/10/11 08:27:29;;;;;;;26.75;24.48;;;19.90;99.90;;;;;;4932813;28;20058;-72
2023/10/11 08:30:08;;;;;;;28.10;25.47;;;19.90;99.90;;;;;;4931004;28;20039;-73
2023/10/11 08:32:42;;;;;;;26.77;24.60;;;20.00;99.90;;;;;;4929915;28;20287;-74
2023/10/11 08:35:23;;;;;;;26.80;24.65;;;20.10;99.90;;;;;;4931557;28;20113;-73
2023/10/11 08:37:52;;;;;;;27.05;24.77;;;20.10;99.90;;;;;;4913741;28;20070;-74
2023/10/11 08:40:23;;;;;;;27.65;24.77;;;20.10;99.90;;;;;;4914397;28;20518;-73
2023/10/11 08:42:54;;;;;;;27.52;25.30;;;20.20;99.90;;;;;;4930433;28;20554;-72
2023/10/11 08:45:36;;;;;;;27.95;25.23;;;20.10;99.90;;;;;;4931203;28;20510;-72
2023/10/11 08:48:05;;;;;;;27.70;25.35;;;20.20;99.90;;;;;;4932632;28;20056;-72
2023/10/11 08:50:35;;;;;;;26.80;24.35;;;20.30;99.90;;;;;;4925244;28;20047;-72
2023/10/11 08:53:08;;;;;;;27.73;25.35;;;20.40;99.90;;;;;;4915791;28;20043;-71
2023/10/11 08:55:39;;;;;;;27.42;25.30;;;20.30;99.90;;;;;;4930621;28;20045;-72
2023/10/11 08:58:23;;;;;;;28.20;25.63;;;20.40;99.90;;;;;;4917784;28;20046;-72
2023/10/11 09:00:52;;;;;;;28.55;25.90;;;20.60;99.90;;;;;;4914719;28;20126;-71
2023/10/11 09:03:19;;;;;;;26.90;24.75;;;20.70;99.90;;;;;;4913971;28;20055;-71
2023/10/11 09:05:47;;;;;;;27.40;25.15;;;20.70;99.90;;;;;;4913247;28;20077;-72
2023/10/11 09:08:31;;;;;;;27.45;25.23;;;20.70;99.90;;;;;;4932096;28;20049;-72
2023/10/11 09:13:53;;;;;;;27.40;24.92;;;20.90;99.90;;;;;;4930349;28;20058;-71
2023/10/11 09:16:34;;;;;;;26.90;24.75;;;20.90;99.90;;;;;;4926996;28;21119;-72
2023/10/11 09:19:06;;;;;;;28.13;25.58;;;21.00;99.90;;;;;;4928786;28;20066;-72
2023/10/11 09:21:42;;;;;;;28.00;25.52;;;21.20;99.90;;;;;;4930489;28;20518;-71
2023/10/11 09:24:23;;;;;;;27.25;24.95;;;21.30;99.90;;;;;;4931313;28;20138;-72
2023/10/11 09:27:12;;;;;;;28.58;26.38;;;21.20;99.90;;;;;;4928840;28;20584;-72
2023/10/11 09:29:39;;;;;;;28.67;26.35;;;21.20;99.90;;;;;;4919754;28;20055;-71
2023/10/11 09:32:06;;;;;;;29.23;26.77;;;21.30;99.90;;;;;;4929519;28;20094;-71
2023/10/11 09:34:34;;;;;;;29.42;27.17;;;21.40;99.90;;;;;;4915219;29;20130;-72
2023/10/11 09:37:02;;;;;;;28.70;26.20;;;21.60;99.90;;;;;;4911440;28;20047;-72
2023/10/11 09:39:30;;;;;;;28.75;25.92;;;21.80;99.90;;;;;;4932409;28;20051;-72
2023/10/11 09:42:04;;;;;;;29.90;27.42;;;21.70;99.90;;;;;;4929081;28;20039;-73
2023/10/11 09:44:39;;;;;;;28.85;26.50;;;21.70;99.90;;;;;;4913821;29;20043;-72
2023/10/11 09:47:19;;;;;;;29.40;26.67;;;21.70;99.90;;;;;;4921937;28;20078;-73
2023/10/11 09:49:51;;;;;;;28.80;26.55;;;21.70;99.90;;;;;;4934532;28;20047;-73
2023/10/11 09:52:23;;;;;;;34.58;28.50;;;21.80;99.90;;;;;;4920336;28;20051;-75
2023/10/11 09:54:51;;;;;;;29.67;27.38;;;22.10;99.90;;;;;;4913245;28;20047;-74
2023/10/11 09:57:50;;;;;;;29.73;27.23;;;22.10;99.90;;;;;;4916021;28;20166;-74
2023/10/11 10:00:34;;;;;;;29.20;27.05;;;22.00;99.90;;;;;;4935481;28;20049;-74
2023/10/11 10:03:04;;;;;;;27.80;25.77;;;22.20;99.90;;;;;;4938227;28;20068;-74
2023/10/11 10:06:06;;;;;;;28.73;26.27;;;22.10;99.90;;;;;;4939865;28;20343;-75
2023/10/11 10:08:34;;;;;;;27.60;25.08;;;22.30;99.90;;;;;;4935638;28;20126;-74
2023/10/11 10:11:04;;;;;;;28.85;26.58;;;22.40;99.90;;;;;;4922806;28;20999;-74
2023/10/11 10:14:01;;;;;;;27.85;25.45;;;22.30;99.90;;;;;;4938209;28;20051;-75
2023/10/11 10:17:10;;;;;;;28.40;25.77;;;22.20;99.90;;;;;;4939904;28;20118;-75
2023/10/11 10:19:47;;;;;;;29.10;26.63;;;22.30;99.90;;;;;;4933548;28;20043;-74
2023/10/11 10:22:27;;;;;;;29.27;26.73;;;22.50;99.90;;;;;;4922945;28;20553;-74
2023/10/11 10:25:18;;;;;;;28.23;25.88;;;22.40;99.90;;;;;;4921654;28;20058;-76
2023/10/11 10:27:46;;;;;;;29.83;27.05;;;22.40;99.90;;;;;;4938763;28;20047;-74
2023/10/11 10:30:16;;;;;;;28.55;26.33;;;22.50;99.90;;;;;;4921649;28;20074;-76
2023/10/11 10:33:18;;;;;;;29.73;27.27;;;22.40;99.90;;;;;;4934227;28;20602;-74
2023/10/11 10:35:48;;;;;;;29.52;27.08;;;22.30;99.90;;;;;;4935775;28;20054;-76
2023/10/11 10:38:21;;;;;;;28.52;26.02;;;22.10;99.90;;;;;;4937411;28;20542;-73
2023/10/11 10:41:19;;;;;;;28.95;26.33;;;22.20;99.90;;;;;;4916623;28;20039;-76
2023/10/11 10:44:04;;;;;;;29.95;27.60;;;22.10;99.90;;;;;;4913966;28;20047;-73
2023/10/11 10:46:50;;;;;;;30.50;27.67;;;22.10;99.90;;;;;;4920974;28;20203;-74
2023/10/11 10:49:23;;;;;;;29.20;26.90;;;22.00;99.90;;;;;;4922324;28;20043;-73
2023/10/11 10:51:53;;;;;;;28.58;26.35;;;22.00;99.90;;;;;;4935359;28;20051;-73
2023/10/11 10:54:25;;;;;;;29.60;27.08;;;22.10;99.90;;;;;;4905493;28;20079;-74
2023/10/11 10:56:53;;;;;;;30.02;27.50;;;22.20;99.90;;;;;;4917319;28;20653;-73
2023/10/11 10:59:21;;;;;;;28.58;26.33;;;22.20;99.90;;;;;;4919021;28;20066;-72
2023/10/11 11:01:50;;;;;;;29.95;27.35;;;22.20;99.90;;;;;;4932727;28;20047;-73
2023/10/11 11:04:22;;;;;;;30.02;27.50;;;22.30;99.90;;;;;;4918496;28;20052;-73
2023/10/11 11:06:52;;;;;;;31.10;28.35;;;22.40;99.90;;;;;;4934913;28;20039;-74
2023/10/11 11:09:25;;;;;;;29.42;27.00;;;22.40;99.90;;;;;;4920694;28;20047;-73
2023/10/11 11:11:57;;;;;;;30.05;27.55;;;22.40;99.90;;;;;;4930821;28;20094;-78
2023/10/11 11:14:25;;;;;;;30.10;27.48;;;22.40;99.90;;;;;;4921296;28;20059;-73
2023/10/11 11:17:00;;;;;;;28.77;26.58;;;22.40;99.90;;;;;;4914812;28;20120;-73
2023/10/11 11:19:27;;;;;;;;;;;22.40;99.90;;;;;;4933119;28;20575;-72
2023/10/11 11:22:15;;;;;;;28.35;25.83;;;22.30;99.90;;;;;;4900032;28;19933;-73
2023/10/11 11:24:45;;;;;;;28.80;25.80;;;22.50;99.90;;;;;;4913411;29;20054;-73
2023/10/11 11:27:16;;;;;;;29.50;27.02;;;22.50;99.90;;;;;;4938713;28;20054;-73
2023/10/11 11:29:43;;;;;;;29.70;26.83;;;22.40;99.90;;;;;;4923420;29;20047;-73
2023/10/11 11:32:17;;;;;;;29.55;27.20;;;22.60;99.90;;;;;;4934771;28;20188;-75
2023/10/11 11:35:09;;;;;;;30.48;27.63;;;22.60;99.90;;;;;;4937497;28;20051;-73
2023/10/11 11:37:40;;;;;;;29.25;26.80;;;22.70;99.90;;;;;;4935037;28;20528;-75
2023/10/11 11:40:36;;;;;;;30.15;27.38;;;22.70;99.90;;;;;;4931329;28;20162;-75
2023/10/11 11:43:04;;;;;;;29.20;26.73;;;22.80;99.90;;;;;;4934031;28;20043;-75
2023/10/11 11:45:35;;;;;;;30.95;28.05;;;22.90;99.90;;;;;;4918411;28;20047;-75
2023/10/11 11:48:05;;;;;;;30.48;27.38;;;22.80;99.90;;;;;;4931712;28;20047;-75
2023/10/11 11:50:37;;;;;;;30.02;27.45;;;22.90;99.90;;;;;;4934824;28;20206;-73
2023/10/11 11:53:06;;;;;;;31.35;27.95;;;23.00;99.90;;;;;;4911648;28;20044;-76
2023/10/11 11:55:35;;;;;;;41.22;30.15;;;22.90;99.90;;;;;;4932860;28;20039;-73
2023/10/11 11:58:10;;;;;;;33.80;27.90;;;22.80;99.90;;;;;;4915714;28;20409;-74
2023/10/11 12:00:45;;;;;;;31.00;27.90;;;22.90;99.90;;;;;;4932657;28;20048;-74
2023/10/11 12:03:12;;;;;;;30.80;27.73;;;22.80;99.90;;;;;;4908869;28;20568;-74
2023/10/11 12:05:42;;;;;;;31.08;28.48;;;22.90;99.90;;;;;;4920781;28;20063;-75
2023/10/11 12:08:20;;;;;;;30.10;27.15;;;23.00;99.90;;;;;;4910300;28;20055;-73
2023/10/11 12:10:54;;;;;;;31.20;27.92;;;23.20;99.90;;;;;;4926704;28;20047;-72
2023/10/11 12:13:24;;;;;;;31.63;28.63;;;23.10;99.90;;;;;;4936387;28;20070;-73
2023/10/11 12:15:55;;;;;;;30.92;27.95;;;23.10;99.90;;;;;;4931358;28;20054;-72
2023/10/11 12:18:33;;;;;;;31.13;28.10;;;23.10;99.90;;;;;;4934708;28;20047;-70
2023/10/11 12:21:15;;;;;;;30.13;27.13;;;23.00;99.90;;;;;;4915978;28;20580;-68
2023/10/11 12:23:48;;;;;;;31.13;27.50;;;23.00;99.90;;;;;;4936972;28;20043;-71
2023/10/11 12:26:20;;;;;;;30.80;27.83;;;23.10;99.90;;;;;;4936066;28;20039;-71
2023/10/11 12:28:48;;;;;;;30.80;27.42;;;23.10;99.90;;;;;;4916756;28;20047;-72
2023/10/11 12:31:18;;;;;;;30.67;27.45;;;23.00;99.90;;;;;;4913425;28;20062;-71
2023/10/11 12:33:46;;;;;;;30.08;27.27;;;22.90;99.90;;;;;;4933860;28;20570;-72
2023/10/11 12:36:16;;;;;;;29.77;26.67;;;22.90;99.90;;;;;;4927096;28;20521;-69
2023/10/11 12:38:44;;;;;;;30.95;27.88;;;23.00;99.90;;;;;;4912370;29;20746;-72
2023/10/11 12:41:15;;;;;;;30.10;27.13;;;23.00;99.90;;;;;;4909839;28;20058;-70
2023/10/11 12:43:45;;;;;;;29.35;26.65;;;23.00;99.90;;;;;;4914334;28;20120;-71
2023/10/11 12:46:12;;;;;;;31.05;27.77;;;23.00;99.90;;;;;;4914154;28;20043;-72
2023/10/11 12:48:43;;;;;;;38.83;28.58;;;23.00;99.90;;;;;;4914515;28;20057;-72
2023/10/11 12:51:12;;;;;;;30.05;27.23;;;22.90;99.90;;;;;;4916074;28;21220;-73
2023/10/11 12:53:43;;;;;;;30.10;27.38;;;23.10;99.90;;;;;;4934998;28;20061;-72
2023/10/11 12:56:10;;;;;;;30.52;27.40;;;23.10;99.90;;;;;;4931891;28;20090;-72
2023/10/11 12:58:39;;;;;;;30.15;27.02;;;23.10;99.90;;;;;;4935669;28;20054;-71
2023/10/11 13:01:11;;;;;;;32.30;26.60;;;23.20;99.90;;;;;;4912612;28;20058;-70
2023/10/11 13:03:40;;;;;;;30.42;27.38;;;23.40;99.90;;;;;;4913197;28;20044;-71
2023/10/11 13:06:09;;;;;;;30.20;27.30;;;23.40;99.90;;;;;;4931647;28;20039;-72
2023/10/11 13:08:40;;;;;;;30.20;27.70;;;23.10;99.90;;;;;;4928750;28;20130;-71
2023/10/11 13:11:11;;;;;;;31.00;27.65;;;23.00;99.90;;;;;;4910274;28;20143;-70
2023/10/11 13:13:40;;;;;;;32.28;26.90;;;23.00;99.90;;;;;;4918010;28;20051;-70
2023/10/11 13:16:08;;;;;;;29.77;27.08;;;23.00;99.90;;;;;;4914802;28;20118;-71
2023/10/11 13:18:38;;;;;;;30.08;26.35;;;23.00;99.90;;;;;;4916559;28;20061;-72
2023/10/11 13:21:12;;;;;;;32.60;27.42;;;22.90;99.90;;;;;;4928154;28;20095;-71
2023/10/11 13:23:44;;;;;;;30.73;27.80;;;22.90;99.90;;;;;;4932819;28;20154;-71
2023/10/11 13:26:18;;;;;;;29.85;26.85;;;23.00;99.90;;;;;;4932661;28;20043;-71
2023/10/11 13:28:48;;;;;;;30.42;27.52;;;23.10;99.90;;;;;;4914197;28;20098;-73
2023/10/11 13:31:17;;;;;;;30.33;27.30;;;23.20;99.90;;;;;;4918927;28;20039;-71
2023/10/11 13:33:44;;;;;;;31.52;28.20;;;23.20;99.90;;;;;;4932309;28;20215;-72
2023/10/11 13:36:12;;;;;;;30.08;27.08;;;23.10;99.90;;;;;;4912408;28;20047;-71
2023/10/11 13:38:45;;;;;;;30.73;27.73;;;23.00;99.90;;;;;;4918922;28;20055;-72
2023/10/11 13:41:12;;;;;;;28.63;25.88;;;23.00;99.90;;;;;;4911726;28;20047;-72
2023/10/11 13:43:40;;;;;;;31.25;26.75;;;23.00;99.90;;;;;;4915650;28;20058;-72
2023/10/11 13:46:07;;;;;;;30.38;27.23;;;23.00;99.90;;;;;;4930669;28;20043;-73
2023/10/11 13:48:37;;;;;;;29.95;26.88;;;23.00;99.90;;;;;;4914406;28;20051;-72
2023/10/11 13:51:16;;;;;;;30.25;27.05;;;23.00;99.90;;;;;;4928320;28;20035;-72
2023/10/11 13:53:43;;;;;;;30.65;27.13;;;22.90;99.90;;;;;;4916246;28;20047;-70
2023/10/11 13:56:24;;;;;;;31.65;27.30;;;22.80;99.90;;;;;;4929372;28;20126;-69
2023/10/11 13:58:52;;;;;;;30.30;27.48;;;22.80;99.90;;;;;;4923440;28;20111;-71
2023/10/11 14:04:18;;;;;;;27.48;24.83;;;22.70;99.90;;;;;;4931861;28;20051;-69